createdAt,value
2018-05-10T00:00:37.079Z,6.33
2018-05-10T00:03:41.182Z,7.23
2018-05-10T00:06:44.507Z,7.13
2018-05-10T00:09:47.828Z,5.93
2018-05-10T00:12:51.136Z,6.47
2018-05-10T00:15:54.501Z,6.60
2018-05-10T00:18:57.852Z,6.37
2018-05-10T00:22:01.338Z,7.13
2018-05-10T00:25:04.693Z,7.27
2018-05-10T00:28:08.228Z,6.37
2018-05-10T00:31:12.528Z,6.60
2018-05-10T00:34:15.845Z,7.27
2018-05-10T00:37:19.176Z,6.50
2018-05-10T00:40:23.249Z,6.17
2018-05-10T00:43:27.245Z,6.50
2018-05-10T00:46:30.557Z,6.73
2018-05-10T00:49:33.884Z,6.30
2018-05-10T00:52:37.217Z,6.70
2018-05-10T00:55:40.545Z,6.30
2018-05-10T00:58:43.866Z,6.97
2018-05-10T01:01:47.173Z,7.90
2018-05-10T01:04:50.552Z,7.23
2018-05-10T01:07:53.865Z,7.43
2018-05-10T01:10:57.174Z,6.80
2018-05-10T01:14:01.267Z,7.30
2018-05-10T01:17:04.574Z,6.60
2018-05-10T01:20:07.920Z,7.23
2018-05-10T01:23:11.257Z,6.90
2018-05-10T01:26:14.570Z,7.17
2018-05-10T01:29:18.662Z,6.90
2018-05-10T01:32:21.990Z,8.00
2018-05-10T01:35:43.905Z,7.97
2018-05-10T01:38:47.224Z,8.07
2018-05-10T01:41:51.323Z,7.73
2018-05-10T01:44:54.638Z,8.03
2018-05-10T01:47:58.729Z,7.83
2018-05-10T01:51:02.037Z,7.37
2018-05-10T01:54:06.124Z,7.70
2018-05-10T01:57:09.440Z,8.17
2018-05-10T02:00:12.766Z,7.57
2018-05-10T02:03:16.088Z,7.80
2018-05-10T02:06:19.401Z,8.03
2018-05-10T02:09:22.733Z,7.63
2018-05-10T02:12:26.820Z,8.10
2018-05-10T02:15:30.148Z,7.97
2018-05-10T02:18:34.232Z,8.03
2018-05-10T02:21:37.565Z,8.00
2018-05-10T02:24:41.641Z,7.77
2018-05-10T02:27:44.965Z,7.33
2018-05-10T02:30:49.047Z,7.23
2018-05-10T02:33:52.372Z,8.67
2018-05-10T02:36:55.701Z,6.97
2018-05-10T02:39:59.026Z,7.57
2018-05-10T02:43:02.357Z,7.43
2018-05-10T02:46:05.684Z,7.53
2018-05-10T02:49:08.993Z,7.47
2018-05-10T02:52:12.309Z,7.03
2018-05-10T02:55:15.618Z,6.93
2018-05-10T02:58:18.938Z,8.00
2018-05-10T03:01:22.254Z,8.67
2018-05-10T03:04:26.350Z,8.70
2018-05-10T03:07:29.681Z,8.30
2018-05-10T03:10:32.986Z,8.60
2018-05-10T03:13:36.313Z,8.60
2018-05-10T03:16:39.645Z,9.20
2018-05-10T03:19:42.972Z,9.60
2018-05-10T03:22:46.278Z,9.20
2018-05-10T03:25:49.614Z,9.00
2018-05-10T03:28:52.920Z,9.60
2018-05-10T03:31:56.246Z,9.73
2018-05-10T03:35:00.323Z,8.97
2018-05-10T03:38:03.661Z,10.03
2018-05-10T03:41:07.750Z,9.43
2018-05-10T03:44:11.076Z,10.57
2018-05-10T03:47:14.419Z,10.37
2018-05-10T03:50:17.725Z,9.90
2018-05-10T03:53:21.075Z,11.53
2018-05-10T03:56:24.402Z,11.37
2018-05-10T03:59:27.729Z,10.63
2018-05-10T04:06:48.953Z,11.27
2018-05-10T04:10:09.865Z,11.30
2018-05-10T04:13:13.232Z,11.97
2018-05-10T04:16:16.538Z,11.47
2018-05-10T04:19:19.872Z,11.17
2018-05-10T04:22:23.188Z,10.40
2018-05-10T04:25:27.324Z,12.57
2018-05-10T04:28:30.877Z,11.50
2018-05-10T04:31:35.111Z,11.17
2018-05-10T04:34:38.457Z,12.63
2018-05-10T04:37:42.613Z,12.93
2018-05-10T04:40:45.945Z,11.90
2018-05-10T04:43:49.484Z,12.60
2018-05-10T04:46:52.852Z,12.57
2018-05-10T04:49:56.211Z,11.90
2018-05-10T04:52:59.520Z,12.47
2018-05-10T04:56:03.634Z,11.13
2018-05-10T04:59:07.730Z,11.97
2018-05-10T05:02:11.062Z,11.17
2018-05-10T05:05:14.393Z,10.53
2018-05-10T05:08:17.726Z,13.13
2018-05-10T05:11:21.046Z,11.43
2018-05-10T05:14:25.214Z,11.13
2018-05-10T05:17:28.614Z,11.57
2018-05-10T05:20:32.031Z,11.83
2018-05-10T05:23:35.680Z,12.63
2018-05-10T05:26:39.081Z,11.20
2018-05-10T05:29:42.555Z,11.93
2018-05-10T05:32:46.700Z,11.10
2018-05-10T05:35:49.974Z,11.73
2018-05-10T05:38:54.009Z,11.77
2018-05-10T05:41:57.313Z,11.47
2018-05-10T05:45:00.650Z,12.03
2018-05-10T05:48:03.969Z,11.20
2018-05-10T05:51:08.106Z,11.17
2018-05-10T05:54:11.402Z,10.93
2018-05-10T05:57:14.721Z,10.00
2018-05-10T06:00:18.048Z,10.57
2018-05-10T06:03:21.353Z,10.33
2018-05-10T06:06:24.677Z,9.57
2018-05-10T06:09:28.749Z,10.43
2018-05-10T06:12:32.073Z,9.57
2018-05-10T06:15:35.454Z,8.80
2018-05-10T06:18:38.722Z,10.40
2018-05-10T06:21:42.053Z,10.07
2018-05-10T06:24:45.391Z,8.57
2018-05-10T06:27:48.712Z,8.13
2018-05-10T06:30:52.017Z,8.67
2018-05-10T06:33:55.375Z,8.33
2018-05-10T06:36:59.447Z,8.27
2018-05-10T06:40:02.785Z,8.23
2018-05-10T06:43:06.101Z,7.53
2018-05-10T06:46:09.434Z,8.60
2018-05-10T06:49:12.765Z,7.57
2018-05-10T06:52:16.833Z,7.37
2018-05-10T06:55:20.186Z,7.20
2018-05-10T06:58:23.493Z,6.50
2018-05-10T07:01:26.826Z,7.03
2018-05-10T07:04:30.150Z,7.17
2018-05-10T07:07:33.471Z,7.13
2018-05-10T07:10:36.777Z,6.87
2018-05-10T07:13:40.101Z,6.70
2018-05-10T07:16:43.422Z,7.00
2018-05-10T07:19:46.750Z,7.00
2018-05-10T07:22:50.075Z,7.03
2018-05-10T07:25:53.385Z,7.10
2018-05-10T07:28:56.705Z,6.30
2018-05-10T07:32:00.037Z,7.37
2018-05-10T07:35:04.108Z,7.07
2018-05-10T07:38:07.430Z,7.00
2018-05-10T07:41:10.751Z,6.50
2018-05-10T07:44:14.063Z,6.33
2018-05-10T07:47:17.435Z,6.77
2018-05-10T07:50:20.729Z,7.13
2018-05-10T07:53:24.817Z,6.43
2018-05-10T07:56:28.121Z,6.60
2018-05-10T07:59:31.442Z,6.77
2018-05-10T08:02:35.529Z,7.03
2018-05-10T08:05:38.829Z,7.00
2018-05-10T08:08:42.147Z,6.70
2018-05-10T08:11:45.494Z,7.30
2018-05-10T08:14:48.792Z,6.93
2018-05-10T08:17:52.106Z,7.13
2018-05-10T08:20:55.410Z,7.87
2018-05-10T08:23:58.732Z,7.23
2018-05-10T08:27:02.817Z,7.27
2018-05-10T08:30:06.129Z,7.00
2018-05-10T08:33:09.449Z,6.53
2018-05-10T08:36:12.769Z,7.23
2018-05-10T08:39:16.074Z,7.27
2018-05-10T08:42:19.397Z,7.33
2018-05-10T08:45:22.693Z,6.83
2018-05-10T08:48:26.015Z,7.47
2018-05-10T08:51:30.191Z,7.80
2018-05-10T08:54:33.437Z,8.23
2018-05-10T08:57:37.524Z,8.27
2018-05-10T09:00:40.845Z,7.90
2018-05-10T09:03:44.961Z,7.93
2018-05-10T09:06:49.033Z,8.67
2018-05-10T09:09:52.352Z,8.50
2018-05-10T09:12:55.675Z,7.70
2018-05-10T09:15:58.991Z,7.90
2018-05-10T09:19:02.309Z,7.37
2018-05-10T09:22:05.614Z,8.10
2018-05-10T09:25:08.929Z,8.63
2018-05-10T09:28:12.242Z,9.20
2018-05-10T09:31:16.329Z,8.10
2018-05-10T09:34:19.661Z,9.07
2018-05-10T09:37:23.729Z,8.40
2018-05-10T09:40:27.058Z,7.87
2018-05-10T09:43:30.365Z,7.67
2018-05-10T09:46:34.449Z,8.17
2018-05-10T09:49:37.769Z,8.20
2018-05-10T09:52:41.862Z,8.10
2018-05-10T09:55:45.173Z,8.00
2018-05-10T09:58:48.496Z,9.03
2018-05-10T10:01:51.801Z,7.93
2018-05-10T10:04:55.125Z,7.53
2018-05-10T10:07:58.461Z,8.17
2018-05-10T10:11:01.855Z,7.67
2018-05-10T10:14:05.101Z,7.80
2018-05-10T10:17:08.477Z,7.63
2018-05-10T10:20:11.734Z,6.90
2018-05-10T10:23:15.038Z,8.40
2018-05-10T10:26:18.358Z,8.23
2018-05-10T10:29:22.450Z,7.83
2018-05-10T10:32:25.867Z,7.53
2018-05-10T10:35:29.119Z,7.27
2018-05-10T10:38:32.438Z,6.63
2018-05-10T10:41:35.757Z,7.27
2018-05-10T10:44:39.845Z,6.97
2018-05-10T10:47:43.164Z,6.93
2018-05-10T10:50:47.365Z,7.20
2018-05-10T10:53:50.778Z,7.67
2018-05-10T10:56:54.009Z,7.17
2018-05-10T10:59:57.437Z,6.90
2018-05-10T11:03:00.648Z,7.27
2018-05-10T11:06:03.970Z,7.40
2018-05-10T11:09:08.164Z,7.67
2018-05-10T11:12:11.381Z,7.60
2018-05-10T11:15:15.477Z,7.63
2018-05-10T11:18:18.801Z,7.53
2018-05-10T11:21:22.122Z,9.20
2018-05-10T11:24:25.429Z,8.43
2018-05-10T11:27:28.750Z,7.60
2018-05-10T11:30:32.057Z,7.13
2018-05-10T11:33:35.378Z,5.97
2018-05-10T11:36:39.449Z,4.70
2018-05-10T11:39:42.769Z,5.47
2018-05-10T11:42:46.870Z,6.43
2018-05-10T11:45:50.178Z,6.13
2018-05-10T11:48:53.503Z,6.70
2018-05-10T11:51:56.823Z,6.47
2018-05-10T11:55:00.121Z,7.00
2018-05-10T11:58:03.445Z,7.77
2018-05-10T12:01:06.773Z,6.47
2018-05-10T12:04:10.838Z,6.17
2018-05-10T12:07:14.159Z,6.77
2018-05-10T12:10:17.461Z,7.17
2018-05-10T12:13:20.783Z,7.50
2018-05-10T12:16:24.873Z,7.60
2018-05-10T12:19:28.194Z,8.20
2018-05-10T12:22:32.302Z,8.80
2018-05-10T12:25:36.426Z,9.23
2018-05-10T12:28:39.697Z,9.13
2018-05-10T12:31:43.006Z,11.33
2018-05-10T12:34:47.097Z,11.27
2018-05-10T12:37:50.405Z,12.03
2018-05-10T12:40:53.732Z,20.80
2018-05-10T12:43:57.044Z,25.50
2018-05-10T12:47:00.369Z,30.57
2018-05-10T12:50:03.697Z,31.87
2018-05-10T12:53:07.005Z,32.47
2018-05-10T12:56:11.147Z,34.20
2018-05-10T12:59:14.425Z,35.10
2018-05-10T13:02:18.512Z,37.57
2018-05-10T13:05:21.817Z,36.50
2018-05-10T13:08:25.185Z,37.47
2018-05-10T13:11:28.469Z,37.67
2018-05-10T13:14:31.794Z,38.67
2018-05-10T13:17:35.096Z,37.97
2018-05-10T13:20:38.429Z,37.07
2018-05-10T13:23:41.757Z,37.63
2018-05-10T13:26:45.093Z,37.70
2018-05-10T13:29:48.397Z,34.10
2018-05-10T13:32:52.481Z,31.43
2018-05-10T13:35:55.802Z,31.07
2018-05-10T13:38:59.880Z,32.17
2018-05-10T13:42:03.205Z,28.17
2018-05-10T13:45:06.529Z,23.90
2018-05-10T13:48:10.602Z,25.10
2018-05-10T13:51:13.933Z,25.37
2018-05-10T13:54:18.008Z,24.67
2018-05-10T13:57:21.338Z,25.63
2018-05-10T14:00:25.410Z,25.47
2018-05-10T14:03:28.728Z,26.73
2018-05-10T14:06:32.035Z,24.90
2018-05-10T14:09:35.365Z,25.10
2018-05-10T14:12:38.703Z,23.47
2018-05-10T14:15:42.025Z,22.83
2018-05-10T14:18:45.351Z,23.17
2018-05-10T14:21:48.673Z,25.43
2018-05-10T14:24:51.993Z,24.93
2018-05-10T14:27:55.314Z,23.63
2018-05-10T14:30:58.641Z,23.93
2018-05-10T14:34:01.965Z,23.13
2018-05-10T14:37:05.321Z,22.80
2018-05-10T14:40:08.621Z,22.53
2018-05-10T14:43:11.941Z,23.97
2018-05-10T14:46:15.269Z,22.93
2018-05-10T14:49:18.600Z,22.13
2018-05-10T14:52:22.674Z,22.33
2018-05-10T14:55:25.993Z,21.80
2018-05-10T14:58:29.313Z,21.10
2018-05-10T15:01:33.405Z,22.13
2018-05-10T15:04:36.709Z,20.83
2018-05-10T15:07:40.029Z,20.77
2018-05-10T15:10:44.102Z,20.10
2018-05-10T15:13:47.425Z,19.40
2018-05-10T15:16:51.513Z,19.77
2018-05-10T15:19:54.834Z,23.23
2018-05-10T15:22:58.909Z,27.07
2018-05-10T15:26:02.241Z,44.73
2018-05-10T15:29:06.322Z,21.97
2018-05-10T15:32:09.657Z,23.83
2018-05-10T15:35:13.729Z,21.40
2018-05-10T15:38:17.098Z,21.57
2018-05-10T15:41:20.408Z,22.60
2018-05-10T15:44:23.729Z,22.57
2018-05-10T15:47:27.053Z,22.57
2018-05-10T15:50:30.381Z,23.33
2018-05-10T15:53:33.688Z,22.67
2018-05-10T15:56:37.009Z,24.40
2018-05-10T15:59:40.357Z,23.53
2018-05-10T16:02:44.430Z,26.20
2018-05-10T16:05:47.753Z,25.60
2018-05-10T16:08:51.760Z,25.73
2018-05-10T16:11:55.072Z,25.13
2018-05-10T16:14:59.161Z,25.07
2018-05-10T16:18:03.014Z,21.30
2018-05-10T16:21:06.333Z,17.40
2018-05-10T16:24:10.415Z,16.53
2018-05-10T16:27:14.514Z,13.43
2018-05-10T16:30:17.865Z,12.70
2018-05-10T16:33:21.177Z,12.03
2018-05-10T16:36:24.497Z,10.80
2018-05-10T16:39:27.895Z,10.23
2018-05-10T16:42:31.905Z,10.40
2018-05-10T16:45:35.213Z,9.67
2018-05-10T16:48:39.303Z,7.13
2018-05-10T16:51:42.634Z,6.23
2018-05-10T16:54:46.723Z,5.50
2018-05-10T16:57:50.030Z,5.70
2018-05-10T17:00:53.378Z,4.97
2018-05-10T17:03:56.694Z,4.10
2018-05-10T17:07:01.081Z,4.80
2018-05-10T17:10:04.649Z,4.17
2018-05-10T17:13:07.973Z,4.83
2018-05-10T17:16:11.314Z,5.13
2018-05-10T17:19:14.622Z,5.20
2018-05-10T17:22:17.950Z,5.53
2018-05-10T17:25:22.021Z,5.10
2018-05-10T17:28:26.041Z,5.23
2018-05-10T17:31:30.273Z,5.07
2018-05-10T17:34:33.616Z,4.97
2018-05-10T17:37:36.913Z,4.77
2018-05-10T17:40:40.237Z,4.23
2018-05-10T17:43:43.569Z,4.63
2018-05-10T17:46:46.897Z,5.33
2018-05-10T17:49:50.201Z,4.47
2018-05-10T17:52:53.516Z,4.40
2018-05-10T17:55:56.833Z,3.87
2018-05-10T17:59:00.154Z,3.77
2018-05-10T18:02:04.246Z,3.70
2018-05-10T18:05:07.547Z,3.40
2018-05-10T18:08:10.869Z,3.43
2018-05-10T18:11:14.189Z,3.53
2018-05-10T18:14:17.505Z,3.27
2018-05-10T18:17:20.829Z,3.17
2018-05-10T18:20:24.133Z,3.00
2018-05-10T18:23:27.512Z,3.17
2018-05-10T18:26:30.766Z,3.10
2018-05-10T18:29:34.090Z,3.27
2018-05-10T18:32:37.419Z,3.77
2018-05-10T18:35:40.746Z,3.87
2018-05-10T18:38:44.841Z,3.63
2018-05-10T18:41:48.157Z,4.17
2018-05-10T18:44:52.245Z,4.17
2018-05-10T18:47:55.554Z,4.33
2018-05-10T18:50:59.645Z,4.40
2018-05-10T18:54:02.961Z,4.10
2018-05-10T18:57:06.289Z,3.67
2018-05-10T19:00:09.597Z,3.50
2018-05-10T19:03:12.939Z,3.80
2018-05-10T19:06:16.254Z,3.70
2018-05-10T19:09:20.346Z,3.00
2018-05-10T19:12:23.653Z,2.90
2018-05-10T19:15:27.053Z,3.50
2018-05-10T19:18:30.322Z,3.47
2018-05-10T19:21:33.637Z,3.57
2018-05-10T19:24:36.971Z,3.60
2018-05-10T19:27:40.329Z,3.40
2018-05-10T19:30:43.653Z,4.07
2018-05-10T19:33:47.745Z,3.57
2018-05-10T19:36:51.152Z,3.40
2018-05-10T19:39:54.392Z,4.43
2018-05-10T19:42:57.718Z,3.70
2018-05-10T19:46:01.040Z,5.53
2018-05-10T19:49:04.365Z,3.90
2018-05-10T19:52:07.686Z,3.10
2018-05-10T19:55:10.991Z,3.53
2018-05-10T19:58:14.319Z,3.90
2018-05-10T20:01:17.627Z,3.63
2018-05-10T20:04:21.717Z,3.50
2018-05-10T20:07:25.045Z,3.70
2018-05-10T20:10:29.109Z,3.83
2018-05-10T20:13:32.429Z,3.53
2018-05-10T20:16:35.754Z,3.60
2018-05-10T20:19:39.825Z,3.70
2018-05-10T20:22:43.149Z,3.67
2018-05-10T20:25:46.469Z,3.67
2018-05-10T20:28:50.537Z,3.57
2018-05-10T20:31:53.858Z,3.37
2018-05-10T20:34:57.172Z,3.83
2018-05-10T20:38:01.265Z,3.77
2018-05-10T20:41:05.349Z,3.57
2018-05-10T20:44:08.689Z,2.90
2018-05-10T20:47:12.756Z,3.30
2018-05-10T20:50:16.073Z,2.90
2018-05-10T20:53:19.374Z,3.00
2018-05-10T20:56:22.693Z,3.00
2018-05-10T20:59:26.770Z,3.03
2018-05-10T21:02:30.081Z,3.07
2018-05-10T21:05:33.400Z,2.50
2018-05-10T21:08:37.499Z,2.73
2018-05-10T21:11:40.825Z,2.37
2018-05-10T21:14:44.889Z,2.23
2018-05-10T21:17:48.214Z,2.90
2018-05-10T21:20:51.518Z,2.77
2018-05-10T21:23:55.616Z,3.13
2018-05-10T21:26:58.918Z,3.00
2018-05-10T21:30:02.237Z,3.10
2018-05-10T21:33:06.317Z,3.87
2018-05-10T21:36:09.633Z,3.60
2018-05-10T21:39:12.951Z,3.67
2018-05-10T21:42:16.286Z,3.37
2018-05-10T21:45:19.590Z,3.80
2018-05-10T21:48:22.909Z,4.10
2018-05-10T21:51:26.238Z,3.70
2018-05-10T21:54:29.542Z,3.50
2018-05-10T21:57:32.865Z,3.77
2018-05-10T22:00:36.234Z,3.80
2018-05-10T22:03:39.561Z,4.30
2018-05-10T22:06:42.939Z,4.07
2018-05-10T22:09:46.197Z,3.67
2018-05-10T22:12:49.527Z,3.43
2018-05-10T22:15:52.852Z,3.60
2018-05-10T22:18:56.161Z,4.27
2018-05-10T22:21:59.477Z,3.20
2018-05-10T22:25:02.805Z,4.00
2018-05-10T22:28:06.138Z,4.03
2018-05-10T22:31:09.458Z,3.57
2018-05-10T22:34:12.761Z,3.50
2018-05-10T22:37:16.104Z,3.87
2018-05-10T22:40:19.408Z,4.13
2018-05-10T22:43:22.726Z,4.40
2018-05-10T22:46:26.047Z,4.13
2018-05-10T22:49:29.353Z,4.17
2018-05-10T22:52:32.677Z,4.10
2018-05-10T22:55:35.980Z,3.73
2018-05-10T22:58:39.301Z,4.10
2018-05-10T23:01:42.609Z,4.30
2018-05-10T23:04:45.938Z,3.83
2018-05-10T23:07:50.009Z,4.47
2018-05-10T23:10:53.333Z,4.37
2018-05-10T23:13:56.637Z,4.50
2018-05-10T23:16:59.963Z,4.20
2018-05-10T23:20:03.291Z,4.83
2018-05-10T23:23:06.593Z,4.60
2018-05-10T23:26:09.913Z,5.43
2018-05-10T23:29:13.246Z,4.77
2018-05-10T23:32:17.309Z,4.53
2018-05-10T23:35:20.633Z,4.70
2018-05-10T23:38:23.945Z,4.40
2018-05-10T23:41:28.057Z,5.07
2018-05-10T23:44:31.364Z,5.23
2018-05-10T23:47:35.452Z,5.27
2018-05-10T23:50:38.776Z,5.97
2018-05-10T23:53:42.077Z,6.03
2018-05-10T23:56:45.405Z,6.27
2018-05-10T23:59:48.733Z,6.40
